Sprague, Connecticut
Current Conditions -  °F | °C
As of 4:52 AM on Thursday 23 Oct 2014 (Local Time) from KIJD Reporting Station
Overcast Overcast  
Wind Chill: 51°   Ceiling: 2200
Heat Index: 51°   Visibility: 10mi
Dew Point: 44°   Wind: 16mph
Humidity: 77%   Direction: 20°NNE
Pressure: 29.68"   Gusts: 25mph
Location:  41.6375°N, 72.0613°W
Report Text: KIJD 230852Z AUTO 02014G22KT 10SM OVC022 11/07 A2968 RMK AO2 PK WND 02026/0828 SLP049 T01060067 56019
Loading
Personal Weather Stations






























Interactive Weather Map
Tropical Storm Tracking
New forecast layout! Learn more

10-Day Weather Forecast

Advertisements
Track Severe Weather on mobile